createdAt,value
2023-12-30T00:00:24.624Z,2.27
2023-12-30T00:30:26.141Z,4.03
2023-12-30T01:00:27.651Z,3.67
2023-12-30T01:30:29.146Z,2.03
2023-12-30T02:00:31.144Z,4.53
2023-12-30T02:30:32.627Z,5.60
2023-12-30T03:00:34.188Z,2.53
2023-12-30T03:30:36.755Z,5.53
2023-12-30T04:00:38.285Z,3.63
2023-12-30T04:30:39.853Z,2.33
2023-12-30T05:00:41.420Z,1.70
2023-12-30T05:30:43.015Z,5.83
2023-12-30T06:00:44.540Z,1.43
2023-12-30T06:30:47.702Z,5.57
2023-12-30T07:00:49.242Z,2.40
2023-12-30T07:30:51.511Z,3.03
2023-12-30T08:00:53.265Z,4.03
2023-12-30T08:30:55.858Z,4.73
2023-12-30T09:00:57.686Z,3.93
2023-12-30T09:30:59.403Z,3.33
2023-12-30T10:01:01.090Z,3.97
2023-12-30T10:31:06.891Z,4.90
2023-12-30T11:01:10.622Z,1.80
2023-12-30T11:31:13.669Z,6.10
2023-12-30T12:01:15.307Z,4.10
2023-12-30T12:31:18.389Z,7.90
2023-12-30T13:01:20.119Z,9.50
2023-12-30T13:31:25.449Z,2.07
2023-12-30T14:34:05.896Z,6.13
2023-12-30T15:04:21.633Z,6.53
2023-12-30T15:34:26.558Z,5.73
2023-12-30T16:04:28.197Z,4.17
2023-12-30T16:34:29.826Z,8.80
2023-12-30T17:04:31.766Z,10.80
2023-12-30T17:34:34.955Z,15.80
2023-12-30T18:04:36.653Z,18.33
2023-12-30T18:34:40.002Z,14.30
2023-12-30T19:04:45.113Z,13.77
2023-12-30T19:34:46.706Z,7.83
2023-12-30T20:04:48.516Z,9.00
2023-12-30T20:34:51.096Z,13.07
2023-12-30T21:04:53.315Z,11.00
2023-12-30T21:34:55.005Z,8.40
2023-12-30T22:04:56.598Z,8.77
2023-12-30T22:34:59.277Z,6.80
2023-12-30T23:05:00.867Z,5.70
2023-12-30T23:35:05.012Z,3.43
